createdAt,value
2023-03-18T00:02:22.291Z,83.70
2023-03-18T00:04:49.149Z,84.40
2023-03-18T00:07:16.377Z,85.60
2023-03-18T00:09:43.480Z,84.40
2023-03-18T00:12:10.791Z,85.90
2023-03-18T00:14:38.768Z,86.00
2023-03-18T00:17:06.215Z,90.10
2023-03-18T00:19:33.785Z,90.70
2023-03-18T00:22:00.730Z,91.10
2023-03-18T00:24:28.433Z,91.20
2023-03-18T00:26:56.485Z,91.10
2023-03-18T00:29:25.081Z,90.90
2023-03-18T00:31:54.493Z,90.40
2023-03-18T00:34:21.595Z,90.60
2023-03-18T00:36:51.159Z,90.00
2023-03-18T00:39:21.742Z,87.50
2023-03-18T00:41:48.684Z,85.70
2023-03-18T00:44:15.579Z,86.60
2023-03-18T00:46:42.522Z,85.70
2023-03-18T00:49:09.751Z,87.50
2023-03-18T00:51:38.264Z,87.50
2023-03-18T00:54:08.028Z,87.50
2023-03-18T00:56:37.727Z,88.00
2023-03-18T00:59:06.268Z,89.30
2023-03-18T01:01:33.865Z,90.70
2023-03-18T01:04:02.038Z,91.80
2023-03-18T01:06:31.424Z,93.00
2023-03-18T01:08:59.204Z,94.00
2023-03-18T01:11:26.629Z,93.00
2023-03-18T01:13:54.119Z,92.00
2023-03-18T01:16:23.836Z,91.30
2023-03-18T01:18:51.251Z,90.90
2023-03-18T01:21:18.239Z,91.20
2023-03-18T01:23:45.658Z,91.00
2023-03-18T01:26:12.896Z,90.80
2023-03-18T01:28:40.044Z,90.80
2023-03-18T01:31:08.327Z,90.40
2023-03-18T01:33:35.949Z,90.00
2023-03-18T01:36:04.146Z,89.70
2023-03-18T01:38:32.249Z,89.90
2023-03-18T01:41:00.619Z,90.70
2023-03-18T01:43:31.721Z,91.20
2023-03-18T01:46:00.885Z,92.20
2023-03-18T01:48:34.156Z,92.20
2023-03-18T01:51:06.346Z,93.20
2023-03-18T01:53:39.217Z,92.90
2023-03-18T01:56:07.870Z,92.70
2023-03-18T01:58:38.649Z,93.00
2023-03-18T02:01:14.937Z,93.60
2023-03-18T02:03:43.053Z,93.40
2023-03-18T02:06:12.416Z,92.80
2023-03-18T02:08:40.464Z,92.80
2023-03-18T02:11:09.444Z,92.00
2023-03-18T02:13:41.409Z,92.20
2023-03-18T02:16:24.315Z,92.30
2023-03-18T02:18:59.460Z,93.10
2023-03-18T02:21:55.396Z,93.20
2023-03-18T02:25:02.890Z,92.90
2023-03-18T02:27:34.718Z,92.90
2023-03-18T02:30:10.490Z,92.80
2023-03-18T02:32:38.586Z,92.70
2023-03-18T02:35:09.023Z,93.00
2023-03-18T02:37:36.081Z,93.50
2023-03-18T02:40:13.277Z,93.30
2023-03-18T02:42:40.155Z,93.80
2023-03-18T02:45:13.721Z,92.90
2023-03-18T02:47:44.962Z,92.70
2023-03-18T02:50:11.912Z,91.90
2023-03-18T02:52:38.965Z,91.90
2023-03-18T02:55:07.228Z,91.90
2023-03-18T02:57:34.222Z,92.00
2023-03-18T03:00:01.363Z,91.90
2023-03-18T03:02:28.409Z,91.90
2023-03-18T03:04:55.325Z,91.70
2023-03-18T03:07:27.801Z,92.40
2023-03-18T03:09:55.052Z,92.80
2023-03-18T03:12:21.927Z,94.00
2023-03-18T03:14:48.922Z,94.60
2023-03-18T03:17:15.911Z,95.20
2023-03-18T03:19:42.904Z,96.50
2023-03-18T03:22:09.894Z,97.00
2023-03-18T03:24:36.766Z,97.60
2023-03-18T03:27:04.093Z,97.80
2023-03-18T03:29:31.089Z,97.80
2023-03-18T03:31:58.333Z,98.20
2023-03-18T03:34:25.256Z,98.80
2023-03-18T03:36:52.071Z,99.90
2023-03-18T03:39:19.173Z,99.90
2023-03-18T03:41:46.010Z,99.90
2023-03-18T03:44:13.128Z,99.90
2023-03-18T03:46:40.785Z,99.90
2023-03-18T03:49:07.753Z,99.90
2023-03-18T03:51:34.621Z,99.90
2023-03-18T03:54:02.212Z,99.90
2023-03-18T03:56:29.268Z,99.90
2023-03-18T03:58:56.142Z,99.90
2023-03-18T04:01:23.161Z,99.90
2023-03-18T04:03:50.243Z,99.90
2023-03-18T04:06:17.157Z,99.90
2023-03-18T04:08:44.104Z,99.90
2023-03-18T04:11:11.144Z,99.90
2023-03-18T04:13:38.049Z,99.90
2023-03-18T04:16:05.405Z,99.90
2023-03-18T04:18:32.376Z,99.90
2023-03-18T04:20:59.249Z,99.90
2023-03-18T04:23:26.745Z,99.90
2023-03-18T04:25:53.665Z,99.90
2023-03-18T04:28:20.540Z,99.90
2023-03-18T04:30:49.334Z,99.90
2023-03-18T04:33:19.579Z,99.90
2023-03-18T04:35:48.777Z,99.90
2023-03-18T04:38:15.900Z,99.90
2023-03-18T04:40:42.996Z,99.90
2023-03-18T04:43:10.124Z,99.90
2023-03-18T04:45:37.085Z,99.90
2023-03-18T04:48:04.358Z,99.90
2023-03-18T04:50:31.774Z,99.90
2023-03-18T04:52:58.809Z,99.90
2023-03-18T04:55:25.662Z,99.90
2023-03-18T04:57:52.515Z,99.90
2023-03-18T05:00:23.821Z,99.90
2023-03-18T05:02:50.993Z,99.90
2023-03-18T05:05:18.437Z,99.90
2023-03-18T05:07:45.484Z,99.90
2023-03-18T05:10:12.659Z,99.90
2023-03-18T05:12:39.567Z,99.90
2023-03-18T05:15:07.355Z,99.90
2023-03-18T05:17:35.632Z,99.90
2023-03-18T05:20:04.481Z,99.90
2023-03-18T05:22:31.554Z,99.90
2023-03-18T05:24:58.636Z,99.90
2023-03-18T05:27:27.626Z,99.90
2023-03-18T05:29:54.589Z,99.90
2023-03-18T05:32:21.888Z,99.90
2023-03-18T05:34:49.286Z,99.90
2023-03-18T05:37:16.617Z,99.90
2023-03-18T05:39:44.931Z,99.90
2023-03-18T05:42:12.707Z,99.90
2023-03-18T05:44:40.460Z,99.90
2023-03-18T05:47:07.898Z,99.90
2023-03-18T05:49:36.841Z,99.90
2023-03-18T05:52:04.235Z,99.90
2023-03-18T05:54:31.578Z,99.90
2023-03-18T05:56:58.491Z,99.90
2023-03-18T05:59:25.383Z,99.90
2023-03-18T06:01:53.974Z,99.90
2023-03-18T06:04:21.163Z,99.90
2023-03-18T06:06:48.596Z,99.90
2023-03-18T06:09:16.629Z,99.90
2023-03-18T06:11:46.721Z,99.90
2023-03-18T06:14:14.556Z,99.90
2023-03-18T06:16:42.406Z,99.90
2023-03-18T06:19:10.854Z,99.90
2023-03-18T06:21:39.198Z,99.90
2023-03-18T06:24:07.162Z,99.90
2023-03-18T06:26:34.369Z,99.90
2023-03-18T06:29:01.326Z,99.90
2023-03-18T06:31:28.438Z,99.90
2023-03-18T06:33:55.748Z,99.90
2023-03-18T06:36:22.739Z,99.90
2023-03-18T06:38:49.670Z,99.90
2023-03-18T06:41:17.212Z,99.90
2023-03-18T06:43:44.790Z,99.90
2023-03-18T06:46:11.768Z,99.90
2023-03-18T06:48:40.527Z,99.90
2023-03-18T06:51:08.104Z,99.90
2023-03-18T06:53:36.508Z,99.90
2023-03-18T06:56:06.534Z,99.90
2023-03-18T06:58:33.771Z,99.90
2023-03-18T07:01:01.636Z,99.90
2023-03-18T07:03:28.836Z,99.90
2023-03-18T07:05:56.186Z,99.90
2023-03-18T07:08:23.292Z,99.90
2023-03-18T07:10:54.021Z,99.90
2023-03-18T07:13:24.730Z,99.90
2023-03-18T07:15:51.616Z,95.60
2023-03-18T07:18:18.573Z,94.80
2023-03-18T07:20:45.431Z,77.80
2023-03-18T07:23:12.380Z,75.10
2023-03-18T07:25:39.252Z,67.50
2023-03-18T07:28:06.190Z,55.50
2023-03-18T07:30:36.018Z,54.00
2023-03-18T07:33:04.270Z,52.00
2023-03-18T07:35:31.738Z,53.80
2023-03-18T07:37:58.904Z,51.80
2023-03-18T07:40:25.772Z,53.40
2023-03-18T07:42:53.669Z,55.00
2023-03-18T07:45:20.728Z,56.20
2023-03-18T07:47:47.706Z,57.60
2023-03-18T07:50:14.561Z,59.10
2023-03-18T07:52:42.031Z,62.60
2023-03-18T07:55:09.330Z,58.60
2023-03-18T07:57:36.757Z,57.00
2023-03-18T08:00:08.139Z,52.60
2023-03-18T08:02:36.263Z,53.60
2023-03-18T08:05:04.025Z,49.90
2023-03-18T08:07:30.951Z,54.70
2023-03-18T08:09:57.858Z,56.50
2023-03-18T08:12:24.812Z,55.20
2023-03-18T08:14:52.798Z,58.60
2023-03-18T08:17:19.922Z,54.40
2023-03-18T08:19:48.931Z,55.40
2023-03-18T08:22:16.057Z,48.70
2023-03-18T08:24:45.153Z,37.00
2023-03-18T08:27:12.425Z,31.40
2023-03-18T08:29:39.421Z,30.00
2023-03-18T08:32:07.976Z,28.00
2023-03-18T08:34:36.124Z,23.50
2023-03-18T08:37:03.197Z,3.60
2023-03-18T08:39:30.049Z,1.00
2023-03-18T08:41:56.938Z,1.00
2023-03-18T08:44:23.853Z,1.00
2023-03-18T08:46:50.878Z,1.00
2023-03-18T08:49:17.767Z,1.00
2023-03-18T08:51:45.022Z,1.00
2023-03-18T08:54:11.890Z,1.00
2023-03-18T08:56:38.902Z,1.00
2023-03-18T08:59:05.841Z,1.00
2023-03-18T09:01:33.128Z,1.00
2023-03-18T09:04:00.145Z,1.90
2023-03-18T09:06:28.792Z,2.90
2023-03-18T09:08:55.743Z,6.20
2023-03-18T09:11:22.728Z,8.90
2023-03-18T09:13:49.685Z,11.40
2023-03-18T09:16:18.503Z,13.20
2023-03-18T09:18:47.697Z,14.60
2023-03-18T09:21:16.340Z,14.60
2023-03-18T09:23:43.355Z,14.50
2023-03-18T09:26:11.570Z,12.80
2023-03-18T09:28:38.573Z,14.60
2023-03-18T09:31:06.367Z,8.20
2023-03-18T09:33:39.944Z,5.90
2023-03-18T09:36:07.681Z,9.00
2023-03-18T09:38:34.730Z,7.90
2023-03-18T09:41:21.114Z,5.60
2023-03-18T09:44:22.898Z,8.00
2023-03-18T09:47:38.975Z,5.70
2023-03-18T09:50:48.327Z,2.30
2023-03-18T09:53:39.131Z,1.40
2023-03-18T09:56:10.967Z,3.60
2023-03-18T09:59:16.039Z,2.50
2023-03-18T10:01:44.263Z,3.60
2023-03-18T10:04:22.218Z,3.90
2023-03-18T10:06:57.062Z,3.70
2023-03-18T10:09:34.658Z,1.00
2023-03-18T10:12:34.511Z,1.00
2023-03-18T10:15:24.325Z,1.00
2023-03-18T10:18:01.266Z,1.00
2023-03-18T10:20:51.667Z,1.00
2023-03-18T10:23:37.450Z,1.00
2023-03-18T10:26:20.130Z,1.00
2023-03-18T10:29:11.817Z,1.00
2023-03-18T10:32:05.874Z,1.00
2023-03-18T10:35:29.587Z,1.00
2023-03-18T10:38:23.519Z,1.00
2023-03-18T10:40:50.508Z,1.00
2023-03-18T10:43:19.889Z,1.00
2023-03-18T10:45:52.061Z,1.00
2023-03-18T10:48:47.247Z,1.00
2023-03-18T10:51:34.675Z,1.00
2023-03-18T10:54:32.916Z,1.00
2023-03-18T10:56:59.973Z,1.00
2023-03-18T10:59:28.744Z,1.00
2023-03-18T11:02:02.035Z,1.00
2023-03-18T11:04:32.136Z,1.00
2023-03-18T11:07:08.521Z,1.00
2023-03-18T11:09:39.524Z,1.00
2023-03-18T11:12:19.313Z,1.00
2023-03-18T11:14:50.810Z,1.00
2023-03-18T11:17:37.412Z,1.00
2023-03-18T11:20:25.280Z,1.00
2023-03-18T11:22:57.707Z,1.00
2023-03-18T11:25:30.258Z,1.00
2023-03-18T11:28:05.329Z,1.00
2023-03-18T11:30:45.851Z,1.00
2023-03-18T11:33:20.082Z,1.00
2023-03-18T11:35:58.321Z,1.00
2023-03-18T11:38:28.859Z,1.00
2023-03-18T11:41:17.082Z,1.00
2023-03-18T11:44:03.868Z,1.00
2023-03-18T11:46:40.468Z,1.00
2023-03-18T11:49:13.345Z,1.00
2023-03-18T11:52:25.099Z,1.00
2023-03-18T11:55:23.691Z,1.00
2023-03-18T11:58:56.607Z,1.00
2023-03-18T12:01:42.581Z,1.00
2023-03-18T12:04:30.769Z,1.00
2023-03-18T12:07:30.359Z,1.00
2023-03-18T12:10:00.497Z,1.00
2023-03-18T12:12:54.912Z,1.00
2023-03-18T12:15:47.954Z,1.00
2023-03-18T12:18:59.418Z,1.00
2023-03-18T12:22:12.109Z,1.00
2023-03-18T12:25:21.191Z,1.00
2023-03-18T12:28:17.397Z,1.00
2023-03-18T12:31:20.212Z,1.00
2023-03-18T12:33:57.786Z,1.00
2023-03-18T12:36:55.743Z,1.00
2023-03-18T12:43:06.210Z,1.00
2023-03-18T12:45:46.558Z,1.00
2023-03-18T12:48:23.609Z,1.00
2023-03-18T12:51:10.697Z,1.00
2023-03-18T12:53:52.701Z,1.00
2023-03-18T12:56:25.868Z,1.00
2023-03-18T12:59:07.271Z,1.00
2023-03-18T13:01:49.470Z,1.00
2023-03-18T13:04:22.297Z,1.00
2023-03-18T13:07:16.005Z,1.00
2023-03-18T13:09:59.675Z,1.00
2023-03-18T13:12:44.472Z,1.00
2023-03-18T13:15:35.255Z,1.00
2023-03-18T13:18:13.477Z,1.00
2023-03-18T13:20:41.468Z,1.00
2023-03-18T13:23:49.906Z,1.00
2023-03-18T13:26:53.250Z,1.00
2023-03-18T13:29:49.252Z,1.00
2023-03-18T13:32:22.950Z,1.00
2023-03-18T13:35:16.189Z,1.00
2023-03-18T13:38:35.977Z,1.00
2023-03-18T13:41:32.685Z,1.00
2023-03-18T13:44:11.705Z,1.00
2023-03-18T13:46:39.082Z,1.00
2023-03-18T13:49:16.574Z,1.00
2023-03-18T13:51:51.644Z,1.00
2023-03-18T13:54:20.666Z,1.00
2023-03-18T13:56:55.679Z,1.00
2023-03-18T13:59:44.771Z,1.00
2023-03-18T14:02:47.473Z,1.00
2023-03-18T14:05:40.583Z,1.00
2023-03-18T14:08:59.219Z,1.00
2023-03-18T14:11:45.271Z,1.00
2023-03-18T14:14:53.898Z,1.00
2023-03-18T14:17:42.230Z,1.00
2023-03-18T14:20:42.002Z,1.00
2023-03-18T14:23:33.419Z,1.00
2023-03-18T14:26:20.087Z,1.00
2023-03-18T14:29:26.800Z,1.00
2023-03-18T14:31:59.103Z,1.00
2023-03-18T14:34:33.333Z,1.00
2023-03-18T14:37:17.681Z,1.00
2023-03-18T14:39:47.933Z,1.00
2023-03-18T14:43:00.979Z,1.00
2023-03-18T14:45:33.609Z,1.00
2023-03-18T14:48:05.612Z,1.00
2023-03-18T14:50:45.441Z,1.00
2023-03-18T14:53:39.813Z,1.00
2023-03-18T14:56:23.860Z,1.00
2023-03-18T14:58:54.582Z,1.00
2023-03-18T15:01:33.013Z,1.00
2023-03-18T15:04:02.114Z,1.00
2023-03-18T15:06:30.043Z,1.00
2023-03-18T15:09:03.421Z,1.00
2023-03-18T15:11:35.774Z,1.00
2023-03-18T15:14:02.779Z,1.00
2023-03-18T15:16:33.107Z,1.00
2023-03-18T15:19:00.396Z,1.00
2023-03-18T15:21:32.449Z,1.00
2023-03-18T15:24:03.677Z,1.00
2023-03-18T15:26:42.137Z,1.00
2023-03-18T15:29:30.090Z,1.00
2023-03-18T15:32:28.558Z,1.00
2023-03-18T15:34:59.177Z,1.00
2023-03-18T15:37:45.388Z,1.00
2023-03-18T15:40:32.160Z,1.00
2023-03-18T15:43:31.227Z,1.00
2023-03-18T15:46:00.494Z,1.00
2023-03-18T15:48:42.336Z,1.00
2023-03-18T15:51:25.886Z,1.00
2023-03-18T15:53:55.829Z,1.00
2023-03-18T15:56:31.608Z,1.00
2023-03-18T15:59:09.190Z,1.00
2023-03-18T16:01:36.509Z,1.00
2023-03-18T16:04:10.441Z,1.00
2023-03-18T16:06:38.673Z,1.00
2023-03-18T16:09:19.504Z,1.00
2023-03-18T16:12:00.141Z,1.00
2023-03-18T16:14:33.348Z,1.00
2023-03-18T16:17:00.357Z,1.00
2023-03-18T16:19:29.115Z,1.00
2023-03-18T16:21:58.364Z,1.00
2023-03-18T16:24:25.858Z,1.00
2023-03-18T16:26:54.965Z,3.10
2023-03-18T16:29:30.900Z,4.90
2023-03-18T16:31:58.316Z,8.60
2023-03-18T16:34:25.439Z,10.00
2023-03-18T16:36:53.591Z,9.80
2023-03-18T16:39:35.197Z,8.60
2023-03-18T16:42:05.122Z,9.70
2023-03-18T16:44:35.120Z,8.00
2023-03-18T16:47:02.472Z,8.00
2023-03-18T16:49:34.530Z,9.70
2023-03-18T16:52:04.192Z,10.60
2023-03-18T16:54:34.604Z,8.00
2023-03-18T16:57:04.453Z,7.90
2023-03-18T16:59:36.975Z,8.90
2023-03-18T17:02:04.652Z,9.40
2023-03-18T17:04:35.532Z,10.70
2023-03-18T17:07:04.915Z,11.10
2023-03-18T17:09:32.172Z,11.60
2023-03-18T17:12:05.934Z,12.10
2023-03-18T17:14:43.457Z,13.00
2023-03-18T17:17:35.882Z,14.20
2023-03-18T17:20:05.195Z,16.40
2023-03-18T17:22:33.414Z,16.40
2023-03-18T17:25:01.444Z,19.00
2023-03-18T17:27:34.828Z,22.50
2023-03-18T17:30:01.713Z,25.00
2023-03-18T17:32:28.772Z,27.60
2023-03-18T17:34:56.350Z,33.60
2023-03-18T17:37:23.714Z,35.50
2023-03-18T17:39:50.690Z,36.00
2023-03-18T17:42:33.052Z,39.20
2023-03-18T17:45:18.867Z,44.70
2023-03-18T17:47:46.002Z,43.80
2023-03-18T17:50:18.502Z,45.50
2023-03-18T17:52:48.616Z,47.10
2023-03-18T17:55:22.671Z,47.30
2023-03-18T17:57:50.803Z,49.20
2023-03-18T18:00:27.325Z,52.40
2023-03-18T18:02:54.931Z,52.60
2023-03-18T18:05:23.115Z,52.40
2023-03-18T18:07:51.476Z,53.50
2023-03-18T18:10:20.311Z,54.90
2023-03-18T18:12:49.794Z,56.60
2023-03-18T18:15:18.436Z,57.20
2023-03-18T18:17:46.877Z,59.30
2023-03-18T18:20:18.977Z,61.50
2023-03-18T18:22:49.920Z,60.60
2023-03-18T18:25:20.012Z,60.00
2023-03-18T18:27:48.088Z,63.20
2023-03-18T18:30:17.822Z,64.70
2023-03-18T18:32:45.746Z,67.50
2023-03-18T18:35:16.853Z,67.70
2023-03-18T18:37:44.395Z,66.80
2023-03-18T18:40:14.122Z,70.30
2023-03-18T18:42:42.050Z,74.30
2023-03-18T18:45:14.829Z,79.40
2023-03-18T18:47:41.829Z,77.50
2023-03-18T18:50:18.495Z,76.10
2023-03-18T18:52:46.549Z,73.50
2023-03-18T18:55:13.650Z,76.10
2023-03-18T18:57:43.291Z,79.60
2023-03-18T19:00:22.459Z,83.00
2023-03-18T19:02:52.172Z,84.20
2023-03-18T19:05:19.223Z,86.90
2023-03-18T19:07:46.544Z,91.60
2023-03-18T19:10:15.501Z,92.10
2023-03-18T19:12:47.321Z,93.10
2023-03-18T19:15:15.681Z,94.60
2023-03-18T19:17:43.480Z,98.90
2023-03-18T19:20:29.389Z,99.90
2023-03-18T19:22:57.732Z,99.90
2023-03-18T19:25:26.010Z,99.90
2023-03-18T19:27:54.695Z,99.90
2023-03-18T19:30:27.952Z,99.90
2023-03-18T19:32:55.265Z,99.90
2023-03-18T19:35:22.296Z,99.90
2023-03-18T19:37:49.228Z,99.90
2023-03-18T19:40:33.018Z,99.90
2023-03-18T19:43:00.378Z,99.90
2023-03-18T19:45:27.391Z,99.90
2023-03-18T19:47:54.323Z,99.90
2023-03-18T19:50:22.162Z,99.90
2023-03-18T19:52:49.401Z,99.90
2023-03-18T19:55:17.387Z,99.90
2023-03-18T19:57:47.462Z,99.90
2023-03-18T20:00:23.655Z,99.90
2023-03-18T20:02:51.109Z,99.90
2023-03-18T20:05:20.813Z,99.90
2023-03-18T20:07:49.443Z,99.90
2023-03-18T20:10:17.890Z,99.90
2023-03-18T20:12:47.085Z,99.90
2023-03-18T20:15:22.383Z,99.90
2023-03-18T20:17:51.676Z,99.90
2023-03-18T20:20:28.460Z,99.90
2023-03-18T20:23:04.144Z,99.90
2023-03-18T20:25:40.550Z,99.90
2023-03-18T20:28:13.330Z,99.90
2023-03-18T20:30:41.107Z,99.90
2023-03-18T20:33:08.742Z,99.90
2023-03-18T20:35:39.099Z,99.90
2023-03-18T20:38:28.654Z,99.90
2023-03-18T20:40:56.750Z,99.90
2023-03-18T20:43:25.648Z,99.90
2023-03-18T20:45:53.053Z,99.90
2023-03-18T20:48:20.866Z,99.90
2023-03-18T20:50:48.062Z,99.90
2023-03-18T20:53:23.916Z,99.90
2023-03-18T20:55:51.381Z,99.90
2023-03-18T20:58:21.362Z,99.90
2023-03-18T21:00:49.052Z,99.90
2023-03-18T21:03:29.592Z,99.90
2023-03-18T21:05:58.838Z,99.90
2023-03-18T21:08:27.147Z,99.90
2023-03-18T21:10:55.949Z,99.90
2023-03-18T21:13:32.858Z,99.90
2023-03-18T21:16:01.328Z,99.90
2023-03-18T21:18:28.527Z,99.90
2023-03-18T21:20:56.519Z,99.90
2023-03-18T21:23:28.965Z,99.90
2023-03-18T21:25:56.607Z,99.90
2023-03-18T21:28:25.604Z,99.90
2023-03-18T21:30:56.195Z,99.90
2023-03-18T21:33:31.529Z,99.90
2023-03-18T21:35:59.667Z,99.90
2023-03-18T21:38:31.418Z,99.90
2023-03-18T21:41:00.863Z,99.90
2023-03-18T21:43:36.967Z,99.90
2023-03-18T21:46:06.747Z,99.90
2023-03-18T21:48:33.764Z,99.90
2023-03-18T21:51:01.163Z,99.90
2023-03-18T21:53:28.772Z,99.90
2023-03-18T21:55:56.198Z,99.90
2023-03-18T21:58:26.396Z,99.90
2023-03-18T22:00:58.814Z,99.90
2023-03-18T22:03:28.759Z,99.90
2023-03-18T22:05:56.520Z,99.90
2023-03-18T22:08:23.887Z,99.90
2023-03-18T22:10:52.241Z,99.90
2023-03-18T22:13:24.256Z,99.90
2023-03-18T22:15:53.045Z,99.90
2023-03-18T22:18:21.041Z,99.90
2023-03-18T22:20:50.511Z,99.90
2023-03-18T22:23:30.072Z,99.90
2023-03-18T22:25:58.224Z,99.90
2023-03-18T22:28:28.081Z,99.90
2023-03-18T22:30:56.120Z,99.90
2023-03-18T22:33:28.976Z,99.90
2023-03-18T22:35:56.700Z,99.90
2023-03-18T22:38:24.504Z,99.90
2023-03-18T22:40:54.368Z,99.90
2023-03-18T22:43:34.774Z,99.90
2023-03-18T22:46:05.420Z,99.90
2023-03-18T22:48:32.693Z,99.90
2023-03-18T22:51:00.646Z,99.90
2023-03-18T22:53:31.696Z,99.90
2023-03-18T22:56:06.021Z,99.90
2023-03-18T22:58:32.901Z,99.90
2023-03-18T23:00:59.791Z,99.90
2023-03-18T23:03:30.412Z,99.90
2023-03-18T23:05:59.936Z,99.90
2023-03-18T23:08:27.725Z,99.90
2023-03-18T23:10:58.947Z,99.90
2023-03-18T23:13:36.076Z,99.90
2023-03-18T23:16:05.412Z,99.90
2023-03-18T23:18:32.398Z,99.90
2023-03-18T23:21:00.430Z,99.90
2023-03-18T23:23:28.433Z,99.90
2023-03-18T23:25:55.455Z,99.90
2023-03-18T23:28:22.377Z,99.90
2023-03-18T23:30:52.345Z,99.90
2023-03-18T23:33:20.041Z,99.90
2023-03-18T23:35:48.198Z,99.90
2023-03-18T23:38:15.495Z,99.90
2023-03-18T23:40:42.691Z,99.90
2023-03-18T23:43:09.830Z,99.90
2023-03-18T23:45:38.468Z,99.90
2023-03-18T23:48:06.300Z,99.90
2023-03-18T23:50:33.179Z,99.90
2023-03-18T23:53:00.550Z,99.90
2023-03-18T23:55:34.594Z,99.90
2023-03-18T23:58:03.343Z,99.90
